createdAt,value
2022-11-23T00:01:19.626Z,67.52
2022-11-23T00:03:48.742Z,67.49
2022-11-23T00:06:16.645Z,68.58
2022-11-23T00:08:43.735Z,67.07
2022-11-23T00:11:11.012Z,67.31
2022-11-23T00:13:42.966Z,69.60
2022-11-23T00:16:24.066Z,68.25
2022-11-23T00:19:01.329Z,67.39
2022-11-23T00:21:30.335Z,68.12
2022-11-23T00:23:57.080Z,68.42
2022-11-23T00:26:24.493Z,70.17
2022-11-23T00:28:51.274Z,71.25
2022-11-23T00:31:20.628Z,71.16
2022-11-23T00:33:54.115Z,70.99
2022-11-23T00:36:23.081Z,70.43
2022-11-23T00:38:50.781Z,70.89
2022-11-23T00:41:18.670Z,69.55
2022-11-23T00:43:45.808Z,69.78
2022-11-23T00:46:18.528Z,69.31
2022-11-23T00:48:47.421Z,69.13
2022-11-23T00:51:27.389Z,68.80
2022-11-23T00:53:54.719Z,68.63
2022-11-23T00:56:24.071Z,68.04
2022-11-23T00:58:52.301Z,68.35
2022-11-23T01:01:22.798Z,68.37
2022-11-23T01:03:52.876Z,69.21
2022-11-23T01:06:30.377Z,68.68
2022-11-23T01:09:00.536Z,69.09
2022-11-23T01:11:29.699Z,69.79
2022-11-23T01:13:56.794Z,70.17
2022-11-23T01:16:26.581Z,69.72
2022-11-23T01:19:01.579Z,70.47
2022-11-23T01:21:30.602Z,71.17
2022-11-23T01:23:59.966Z,70.58
2022-11-23T01:26:28.718Z,69.98
2022-11-23T01:28:59.491Z,70.15
2022-11-23T01:31:29.423Z,68.96
2022-11-23T01:33:59.253Z,69.56
2022-11-23T01:36:35.995Z,69.72
2022-11-23T01:39:08.767Z,70.92
2022-11-23T01:41:50.527Z,71.22
2022-11-23T01:44:33.893Z,70.62
2022-11-23T01:47:09.219Z,69.63
2022-11-23T01:49:52.830Z,70.62
2022-11-23T01:52:25.035Z,70.38
2022-11-23T01:54:55.765Z,70.61
2022-11-23T01:57:51.260Z,71.58
2022-11-23T02:00:45.763Z,70.72
2022-11-23T02:03:18.600Z,70.63
2022-11-23T02:05:49.874Z,70.16
2022-11-23T02:08:27.782Z,71.46
2022-11-23T02:11:00.290Z,71.69
2022-11-23T02:13:29.319Z,70.97
2022-11-23T02:15:59.799Z,70.79
2022-11-23T02:18:37.224Z,71.29
2022-11-23T02:21:05.329Z,71.48
2022-11-23T02:24:00.956Z,71.74
2022-11-23T02:26:37.797Z,72.59
2022-11-23T02:29:12.048Z,73.28
2022-11-23T02:31:39.187Z,72.80
2022-11-23T02:34:06.098Z,71.38
2022-11-23T02:36:45.842Z,71.56
2022-11-23T02:39:13.077Z,71.82
2022-11-23T02:41:54.834Z,71.77
2022-11-23T02:44:37.406Z,72.38
2022-11-23T02:47:20.940Z,71.53
2022-11-23T02:50:19.808Z,71.80
2022-11-23T02:52:54.523Z,71.85
2022-11-23T02:55:28.467Z,72.12
2022-11-23T02:57:57.446Z,71.97
2022-11-23T03:00:27.199Z,71.59
2022-11-23T03:02:53.953Z,72.75
2022-11-23T03:05:20.797Z,73.07
2022-11-23T03:07:51.594Z,72.79
2022-11-23T03:10:19.537Z,72.25
2022-11-23T03:12:49.116Z,71.33
2022-11-23T03:15:16.040Z,72.35
2022-11-23T03:17:43.206Z,71.57
2022-11-23T03:20:12.800Z,71.38
2022-11-23T03:22:43.020Z,71.35
2022-11-23T03:25:10.905Z,70.55
2022-11-23T03:27:39.558Z,70.56
2022-11-23T03:30:09.108Z,69.86
2022-11-23T03:32:38.613Z,70.93
2022-11-23T03:35:06.316Z,73.24
2022-11-23T03:37:35.276Z,72.83
2022-11-23T03:40:02.767Z,72.49
2022-11-23T03:42:48.368Z,72.74
2022-11-23T03:45:15.835Z,72.96
2022-11-23T03:47:42.540Z,73.62
2022-11-23T03:50:09.787Z,73.46
2022-11-23T03:52:37.253Z,73.93
2022-11-23T03:55:04.386Z,73.68
2022-11-23T03:57:31.302Z,74.14
2022-11-23T04:00:00.742Z,73.10
2022-11-23T04:02:27.496Z,72.58
2022-11-23T04:05:07.364Z,72.30
2022-11-23T04:08:06.539Z,71.91
2022-11-23T04:10:33.343Z,72.22
2022-11-23T04:13:13.977Z,71.74
2022-11-23T04:15:40.871Z,71.18
2022-11-23T04:18:09.092Z,72.08
2022-11-23T04:20:38.168Z,71.51
2022-11-23T04:23:07.134Z,72.10
2022-11-23T04:25:38.229Z,71.78
2022-11-23T04:28:06.258Z,71.39
2022-11-23T04:30:32.963Z,71.26
2022-11-23T04:33:00.820Z,71.48
2022-11-23T04:35:27.913Z,72.10
2022-11-23T04:37:55.138Z,72.20
2022-11-23T04:40:25.395Z,70.94
2022-11-23T04:43:02.312Z,71.74
2022-11-23T04:45:32.820Z,70.47
2022-11-23T04:48:04.879Z,69.75
2022-11-23T04:50:35.334Z,71.24
2022-11-23T04:53:03.986Z,71.75
2022-11-23T04:55:37.792Z,71.38
2022-11-23T04:58:04.797Z,70.68
2022-11-23T05:00:34.135Z,70.93
2022-11-23T05:03:03.091Z,71.63
2022-11-23T05:05:33.020Z,70.79
2022-11-23T05:08:01.947Z,70.43
2022-11-23T05:10:46.501Z,70.96
2022-11-23T05:13:13.977Z,71.46
2022-11-23T05:15:40.726Z,71.89
2022-11-23T05:18:08.391Z,70.75
2022-11-23T05:20:38.390Z,70.55
2022-11-23T05:23:05.190Z,70.29
2022-11-23T05:25:43.016Z,71.47
2022-11-23T05:28:42.652Z,71.73
2022-11-23T05:34:24.254Z,71.36
2022-11-23T05:42:15.201Z,70.99
2022-11-23T05:44:42.664Z,69.91
2022-11-23T05:47:17.704Z,70.78
2022-11-23T05:49:44.464Z,71.28
2022-11-23T05:52:12.968Z,70.00
2022-11-23T05:54:39.916Z,70.66
2022-11-23T05:57:12.401Z,70.85
2022-11-23T05:59:40.910Z,71.91
2022-11-23T06:02:11.219Z,70.87
2022-11-23T06:04:37.936Z,70.73
2022-11-23T06:07:13.379Z,71.87
2022-11-23T06:10:00.098Z,70.43
2022-11-23T06:12:34.561Z,69.22
2022-11-23T06:15:03.814Z,71.40
2022-11-23T06:17:31.069Z,71.28
2022-11-23T06:20:02.776Z,71.73
2022-11-23T06:22:29.944Z,70.92
2022-11-23T06:25:02.444Z,70.82
2022-11-23T06:27:32.139Z,71.31
2022-11-23T06:30:01.358Z,70.58
2022-11-23T06:32:31.002Z,69.99
2022-11-23T06:35:00.816Z,70.09
2022-11-23T06:37:30.865Z,70.00
2022-11-23T06:39:57.718Z,70.25
2022-11-23T06:42:41.294Z,70.03
2022-11-23T06:45:18.397Z,70.20
2022-11-23T06:47:49.693Z,70.65
2022-11-23T06:50:17.733Z,69.79
2022-11-23T06:52:46.194Z,69.93
2022-11-23T06:55:15.987Z,70.36
2022-11-23T06:57:42.847Z,69.97
2022-11-23T07:00:12.011Z,70.38
2022-11-23T07:02:38.870Z,70.94
2022-11-23T07:05:06.377Z,70.95
2022-11-23T07:07:33.282Z,70.23
2022-11-23T07:10:08.037Z,71.86
2022-11-23T07:12:55.149Z,70.64
2022-11-23T07:15:23.464Z,70.67
2022-11-23T07:17:51.876Z,71.18
2022-11-23T07:20:28.357Z,71.34
2022-11-23T07:23:07.115Z,71.14
2022-11-23T07:25:36.097Z,71.08
2022-11-23T07:28:04.419Z,70.96
2022-11-23T07:30:33.540Z,70.61
2022-11-23T07:33:06.080Z,70.65
2022-11-23T07:35:33.073Z,70.85
2022-11-23T07:38:00.774Z,70.59
2022-11-23T07:40:30.425Z,70.44
2022-11-23T07:43:04.094Z,70.18
2022-11-23T07:45:31.282Z,69.75
2022-11-23T07:48:05.129Z,70.32
2022-11-23T07:50:32.552Z,70.83
2022-11-23T07:52:59.234Z,71.16
2022-11-23T07:55:26.160Z,70.77
2022-11-23T07:57:54.957Z,71.31
2022-11-23T08:00:29.755Z,69.96
2022-11-23T08:05:47.771Z,70.67
2022-11-23T08:08:14.831Z,70.56
2022-11-23T08:10:46.175Z,70.71
2022-11-23T08:13:15.400Z,71.50
2022-11-23T08:15:48.846Z,70.40
2022-11-23T08:18:20.277Z,70.68
2022-11-23T08:20:50.448Z,70.67
2022-11-23T08:23:17.209Z,71.21
2022-11-23T08:25:43.979Z,71.22
2022-11-23T08:28:11.104Z,70.05
2022-11-23T08:30:38.423Z,70.69
2022-11-23T08:33:09.250Z,70.42
2022-11-23T08:35:37.055Z,70.23
2022-11-23T08:38:11.050Z,69.69
2022-11-23T08:40:38.425Z,68.09
2022-11-23T08:43:05.945Z,68.95
2022-11-23T08:45:32.696Z,68.70
2022-11-23T08:48:03.799Z,70.63
2022-11-23T08:50:33.237Z,70.25
2022-11-23T08:53:00.654Z,70.29
2022-11-23T08:55:28.644Z,69.38
2022-11-23T08:57:57.346Z,70.06
2022-11-23T09:00:25.318Z,68.82
2022-11-23T09:02:52.409Z,69.15
2022-11-23T09:05:19.117Z,69.02
2022-11-23T09:07:45.943Z,69.16
2022-11-23T09:10:17.992Z,69.87
2022-11-23T09:12:46.345Z,69.27
2022-11-23T09:15:13.154Z,67.71
2022-11-23T09:17:42.530Z,68.58
2022-11-23T09:20:10.383Z,67.07
2022-11-23T09:22:37.553Z,68.93
2022-11-23T09:25:05.135Z,69.07
2022-11-23T09:27:31.770Z,68.83
2022-11-23T09:29:58.581Z,69.11
2022-11-23T09:32:25.310Z,69.14
2022-11-23T09:34:51.997Z,68.69
2022-11-23T09:37:18.901Z,68.56
2022-11-23T09:39:45.705Z,68.98
2022-11-23T09:42:40.591Z,67.39
2022-11-23T09:45:19.179Z,68.58
2022-11-23T09:47:51.791Z,68.28
2022-11-23T09:50:28.504Z,67.92
2022-11-23T09:52:55.292Z,68.35
2022-11-23T09:55:34.598Z,68.11
2022-11-23T09:58:04.996Z,67.74
2022-11-23T10:00:44.818Z,68.03
2022-11-23T10:03:17.067Z,67.97
2022-11-23T10:05:57.786Z,68.87
2022-11-23T10:08:45.939Z,68.89
2022-11-23T10:11:30.912Z,69.26
2022-11-23T10:14:24.046Z,68.86
2022-11-23T10:17:00.683Z,69.07
2022-11-23T10:22:49.922Z,69.20
2022-11-23T10:25:19.463Z,68.54
2022-11-23T10:27:48.916Z,68.94
2022-11-23T10:30:18.178Z,69.59
2022-11-23T10:33:13.728Z,68.85
2022-11-23T10:35:42.931Z,68.22
2022-11-23T10:38:18.178Z,68.50
2022-11-23T10:41:12.696Z,69.10
2022-11-23T10:44:02.835Z,68.43
2022-11-23T10:46:36.785Z,68.67
2022-11-23T10:49:21.122Z,68.08
2022-11-23T10:51:54.252Z,68.09
2022-11-23T10:54:27.671Z,67.75
2022-11-23T10:56:55.296Z,67.65
2022-11-23T10:59:42.078Z,65.58
2022-11-23T11:02:21.818Z,66.15
2022-11-23T11:04:55.820Z,65.92
2022-11-23T11:07:30.913Z,65.65
2022-11-23T11:10:03.381Z,66.39
2022-11-23T11:12:34.633Z,66.77
2022-11-23T11:15:21.636Z,65.67
2022-11-23T11:18:01.755Z,66.70
2022-11-23T11:20:28.404Z,66.70
2022-11-23T11:23:20.390Z,67.23
2022-11-23T11:25:51.408Z,67.09
2022-11-23T11:28:29.721Z,66.32
2022-11-23T11:31:15.220Z,65.81
2022-11-23T11:34:02.793Z,65.53
2022-11-23T11:36:40.256Z,64.93
2022-11-23T11:39:29.251Z,65.24
2022-11-23T11:42:02.075Z,65.41
2022-11-23T11:44:36.892Z,65.20
2022-11-23T11:47:13.344Z,64.83
2022-11-23T11:49:46.770Z,64.54
2022-11-23T11:52:27.907Z,64.27
2022-11-23T11:55:33.387Z,65.56
2022-11-23T11:58:10.129Z,64.70
2022-11-23T12:00:44.791Z,66.08
2022-11-23T12:03:27.066Z,64.56
2022-11-23T12:05:58.662Z,65.79
2022-11-23T12:08:43.850Z,64.51
2022-11-23T12:11:12.776Z,64.36
2022-11-23T12:13:43.308Z,64.40
2022-11-23T12:16:36.941Z,64.30
2022-11-23T12:19:43.174Z,63.49
2022-11-23T12:22:26.691Z,62.77
2022-11-23T12:25:19.375Z,62.97
2022-11-23T12:28:08.049Z,62.60
2022-11-23T12:31:06.948Z,62.00
2022-11-23T12:34:01.156Z,62.56
2022-11-23T12:36:37.423Z,62.05
2022-11-23T12:39:25.712Z,62.57
2022-11-23T12:42:27.306Z,61.52
2022-11-23T12:45:06.173Z,62.54
2022-11-23T12:47:54.473Z,63.01
2022-11-23T12:50:35.496Z,61.97
2022-11-23T12:53:06.592Z,63.20
2022-11-23T12:55:53.319Z,62.54
2022-11-23T12:58:29.113Z,61.95
2022-11-23T13:01:29.451Z,61.05
2022-11-23T13:04:20.382Z,60.98
2022-11-23T13:07:31.393Z,60.01
2022-11-23T13:10:12.865Z,60.84
2022-11-23T13:13:03.146Z,60.91
2022-11-23T13:15:46.659Z,60.27
2022-11-23T13:18:27.931Z,60.13
2022-11-23T13:21:00.700Z,60.14
2022-11-23T13:23:27.556Z,60.47
2022-11-23T13:26:38.470Z,59.42
2022-11-23T13:29:51.514Z,60.24
2022-11-23T13:32:40.284Z,59.66
2022-11-23T13:35:16.124Z,59.26
2022-11-23T13:37:58.071Z,58.74
2022-11-23T13:40:36.903Z,56.45
2022-11-23T13:43:20.715Z,54.91
2022-11-23T13:46:19.541Z,54.76
2022-11-23T13:48:56.649Z,53.67
2022-11-23T13:51:27.648Z,51.31
2022-11-23T13:54:03.668Z,49.66
2022-11-23T13:56:32.273Z,47.75
2022-11-23T13:59:23.569Z,48.46
2022-11-23T14:02:27.046Z,48.83
2022-11-23T14:05:15.608Z,49.05
2022-11-23T14:07:46.247Z,48.95
2022-11-23T14:10:24.232Z,51.02
2022-11-23T14:13:05.270Z,52.17
2022-11-23T14:15:39.051Z,52.99
2022-11-23T14:18:25.957Z,54.09
2022-11-23T14:20:59.961Z,54.06
2022-11-23T14:23:44.789Z,54.44
2022-11-23T14:26:28.883Z,56.13
2022-11-23T14:29:32.829Z,56.69
2022-11-23T14:32:45.067Z,57.41
2022-11-23T14:35:32.539Z,57.59
2022-11-23T14:38:20.945Z,57.39
2022-11-23T14:41:06.874Z,57.91
2022-11-23T14:43:35.903Z,58.57
2022-11-23T14:46:04.486Z,58.46
2022-11-23T14:48:33.733Z,58.72
2022-11-23T14:51:10.042Z,59.88
2022-11-23T14:53:46.444Z,60.38
2022-11-23T14:56:31.921Z,60.17
2022-11-23T14:59:18.225Z,60.70
2022-11-23T15:01:52.503Z,61.47
2022-11-23T15:04:34.099Z,61.57
2022-11-23T15:07:08.541Z,61.61
2022-11-23T15:09:55.594Z,61.93
2022-11-23T15:12:45.603Z,62.28
2022-11-23T15:15:52.200Z,61.57
2022-11-23T15:18:41.164Z,62.61
2022-11-23T15:21:11.010Z,61.95
2022-11-23T15:23:42.880Z,62.76
2022-11-23T15:26:46.901Z,62.43
2022-11-23T15:29:35.603Z,63.71
2022-11-23T15:32:29.241Z,64.36
2022-11-23T15:34:56.576Z,62.97
2022-11-23T15:37:25.167Z,64.49
2022-11-23T15:39:53.777Z,64.94
2022-11-23T15:42:23.991Z,64.84
2022-11-23T15:44:52.303Z,64.90
2022-11-23T15:47:27.306Z,64.78
2022-11-23T15:50:05.182Z,64.86
2022-11-23T15:52:38.287Z,64.78
2022-11-23T15:55:10.027Z,65.42
2022-11-23T15:57:41.576Z,66.04
2022-11-23T16:00:25.681Z,65.87
2022-11-23T16:02:53.050Z,66.80
2022-11-23T16:05:25.472Z,65.95
2022-11-23T16:08:15.051Z,65.38
2022-11-23T16:10:54.766Z,65.45
2022-11-23T16:13:38.512Z,65.48
2022-11-23T16:16:21.986Z,65.56
2022-11-23T16:18:56.916Z,66.32
2022-11-23T16:21:25.341Z,65.61
2022-11-23T16:23:56.593Z,65.03
2022-11-23T16:26:34.260Z,64.23
2022-11-23T16:29:02.232Z,64.86
2022-11-23T16:31:35.611Z,66.54
2022-11-23T16:34:09.378Z,67.49
2022-11-23T16:36:36.175Z,66.69
2022-11-23T16:39:05.741Z,67.09
2022-11-23T16:41:33.050Z,67.52
2022-11-23T16:43:59.828Z,67.55
2022-11-23T16:46:26.684Z,66.72
2022-11-23T16:48:55.607Z,67.46
2022-11-23T16:51:22.331Z,67.45
2022-11-23T16:56:36.414Z,67.44
2022-11-23T16:59:03.178Z,66.68
2022-11-23T17:01:30.739Z,65.35
2022-11-23T17:03:59.025Z,66.17
2022-11-23T17:06:25.913Z,67.05
2022-11-23T17:09:00.563Z,67.68
2022-11-23T17:14:19.221Z,68.91
2022-11-23T17:16:47.252Z,69.38
2022-11-23T17:19:22.782Z,68.18
2022-11-23T17:21:49.574Z,69.15
2022-11-23T17:24:16.350Z,69.10
2022-11-23T17:26:46.698Z,69.62
2022-11-23T17:29:17.857Z,69.56
2022-11-23T17:31:45.635Z,69.08
2022-11-23T17:34:14.446Z,69.11
2022-11-23T17:36:43.018Z,69.93
2022-11-23T17:39:30.067Z,70.11
2022-11-23T17:42:04.990Z,69.38
2022-11-23T17:44:32.045Z,68.88
2022-11-23T17:47:00.327Z,69.80
2022-11-23T17:49:28.477Z,68.79
2022-11-23T17:51:56.025Z,68.52
2022-11-23T17:54:23.954Z,68.70
2022-11-23T17:56:51.709Z,69.76
2022-11-23T17:59:19.145Z,69.82
2022-11-23T18:01:45.866Z,69.80
2022-11-23T18:04:12.755Z,69.42
2022-11-23T18:06:39.400Z,69.30
2022-11-23T18:09:09.060Z,69.22
2022-11-23T18:11:37.954Z,68.70
2022-11-23T18:14:04.936Z,68.90
2022-11-23T18:16:34.307Z,68.75
2022-11-23T18:19:00.999Z,68.11
2022-11-23T18:21:27.759Z,67.85
2022-11-23T18:23:54.470Z,67.81
2022-11-23T18:26:27.191Z,67.52
2022-11-23T18:28:54.254Z,68.60
2022-11-23T18:31:21.648Z,69.47
2022-11-23T18:33:48.414Z,70.46
2022-11-23T18:36:15.263Z,69.86
2022-11-23T18:38:45.021Z,68.43
2022-11-23T18:41:13.343Z,67.91
2022-11-23T18:43:40.005Z,67.00
2022-11-23T18:46:08.253Z,68.12
2022-11-23T18:48:35.021Z,68.10
2022-11-23T18:51:03.228Z,66.85
2022-11-23T18:53:30.580Z,66.97
2022-11-23T18:56:02.640Z,67.05
2022-11-23T18:58:42.027Z,66.96
2022-11-23T19:01:13.101Z,66.79
2022-11-23T19:03:41.789Z,66.34
2022-11-23T19:06:12.021Z,66.50
2022-11-23T19:08:46.948Z,67.50
2022-11-23T19:11:18.067Z,67.40
2022-11-23T19:13:47.154Z,66.72
2022-11-23T19:16:34.030Z,67.13
2022-11-23T19:19:03.615Z,66.60
2022-11-23T19:21:33.395Z,66.66
2022-11-23T19:24:00.655Z,66.89
2022-11-23T19:26:29.476Z,68.87
2022-11-23T19:28:57.034Z,69.86
2022-11-23T19:31:29.324Z,71.12
2022-11-23T19:33:58.449Z,71.48
2022-11-23T19:36:25.565Z,72.29
2022-11-23T19:38:56.656Z,72.20
2022-11-23T19:41:29.543Z,71.15
2022-11-23T19:43:59.076Z,70.34
2022-11-23T19:46:26.635Z,70.14
2022-11-23T19:48:58.395Z,69.22
2022-11-23T19:51:26.025Z,69.30
2022-11-23T19:53:52.682Z,68.55
2022-11-23T19:56:22.724Z,69.42
2022-11-23T19:58:54.337Z,68.76
2022-11-23T20:01:22.820Z,69.29
2022-11-23T20:03:52.117Z,69.71
2022-11-23T20:06:29.820Z,69.51
2022-11-23T20:09:02.050Z,69.54
2022-11-23T20:11:30.631Z,69.37
2022-11-23T20:14:01.402Z,69.10
2022-11-23T20:16:31.474Z,70.42
2022-11-23T20:19:07.023Z,69.80
2022-11-23T20:21:34.600Z,68.88
2022-11-23T20:24:11.553Z,68.88
2022-11-23T20:26:39.051Z,68.34
2022-11-23T20:29:07.115Z,68.10
2022-11-23T20:31:35.391Z,68.24
2022-11-23T20:34:06.442Z,68.36
2022-11-23T20:36:36.023Z,68.33
2022-11-23T20:39:05.599Z,68.50
2022-11-23T20:41:37.995Z,68.66
2022-11-23T20:44:14.892Z,67.46
2022-11-23T20:49:30.118Z,68.07
2022-11-23T20:51:59.777Z,69.25
2022-11-23T20:54:29.320Z,68.80
2022-11-23T20:56:58.181Z,68.99
2022-11-23T20:59:24.964Z,68.92
2022-11-23T21:01:52.184Z,68.76
2022-11-23T21:04:18.955Z,68.50
2022-11-23T21:06:45.715Z,68.50
2022-11-23T21:09:12.524Z,68.86
2022-11-23T21:11:57.925Z,68.81
2022-11-23T21:14:28.151Z,69.07
2022-11-23T21:16:58.716Z,68.39
2022-11-23T21:19:29.946Z,68.21
2022-11-23T21:21:57.800Z,68.16
2022-11-23T21:24:25.529Z,67.46
2022-11-23T21:26:52.287Z,67.24
2022-11-23T21:29:20.751Z,68.10
2022-11-23T21:31:49.138Z,67.55
2022-11-23T21:34:19.053Z,68.50
2022-11-23T21:36:45.884Z,69.23
2022-11-23T21:39:13.657Z,69.24
2022-11-23T21:41:40.763Z,69.40
2022-11-23T21:44:08.792Z,69.65
2022-11-23T21:46:39.864Z,69.60
2022-11-23T21:49:06.959Z,69.19
2022-11-23T21:51:34.997Z,68.83
2022-11-23T21:54:15.628Z,68.76
2022-11-23T21:56:44.555Z,68.12
2022-11-23T21:59:12.509Z,66.82
2022-11-23T22:01:43.307Z,68.18
2022-11-23T22:04:12.331Z,67.03
2022-11-23T22:06:40.604Z,67.09
2022-11-23T22:09:09.563Z,67.48
2022-11-23T22:11:37.785Z,67.34
2022-11-23T22:14:11.949Z,68.64
2022-11-23T22:16:43.832Z,68.73
2022-11-23T22:19:12.618Z,68.83
2022-11-23T22:21:40.723Z,68.30
2022-11-23T22:24:12.949Z,68.61
2022-11-23T22:26:39.662Z,68.85
2022-11-23T22:29:06.880Z,68.57
2022-11-23T22:31:34.838Z,68.54
2022-11-23T22:34:06.838Z,69.34
2022-11-23T22:36:33.649Z,68.87
2022-11-23T22:39:03.074Z,68.65
2022-11-23T22:41:34.518Z,69.19
2022-11-23T22:44:01.378Z,70.02
2022-11-23T22:46:28.383Z,69.25
2022-11-23T22:48:59.546Z,69.89
2022-11-23T22:51:28.122Z,70.00
2022-11-23T22:53:55.940Z,69.10
2022-11-23T22:56:22.883Z,68.96
2022-11-23T22:58:49.960Z,69.66
2022-11-23T23:01:20.223Z,69.49
2022-11-23T23:03:50.680Z,69.13
2022-11-23T23:06:21.936Z,69.88
2022-11-23T23:08:56.607Z,69.50
2022-11-23T23:11:25.051Z,69.58
2022-11-23T23:13:52.475Z,69.76
2022-11-23T23:16:19.640Z,69.31
2022-11-23T23:18:46.558Z,69.23
2022-11-23T23:21:18.891Z,68.61
2022-11-23T23:23:48.587Z,68.71
2022-11-23T23:26:18.665Z,68.49
2022-11-23T23:28:46.998Z,68.29
2022-11-23T23:31:16.324Z,69.38
2022-11-23T23:33:44.414Z,68.74
2022-11-23T23:36:22.672Z,68.22
2022-11-23T23:38:58.525Z,68.16
2022-11-23T23:41:25.669Z,68.56
2022-11-23T23:43:52.604Z,68.75
2022-11-23T23:46:19.651Z,68.94
2022-11-23T23:48:46.881Z,69.26
2022-11-23T23:51:15.083Z,68.71
2022-11-23T23:53:43.250Z,69.39
2022-11-23T23:56:27.975Z,69.05
2022-11-23T23:58:56.914Z,69.43
